Time;durP1;ratioP1;P1;durP2;ratioP2;P2;SDS_P1;SDS_P2;PMS_P1;PMS_P2;Temp;Humidity;BMP_temperature;BMP_pressure;BME280_temperature;BME280_humidity;BME280_pressure;Samples;Min_cycle;Max_cycle;Signal;HPM_P1;HPM_P2
2023/04/07 00:00:03;;;;;;;1.0;1.0;;;;;;;9.2;100.0;101220;;;;
2023/04/07 00:01:00;;;;;;;1.0;1.0;;;;;;;9.2;100.0;101220;;;;
2023/04/07 00:02:00;;;;;;;1.0;1.0;;;;;;;9.2;100.0;101220;;;;
2023/04/07 00:03:01;;;;;;;1.0;1.0;;;;;;;9.2;100.0;101220;;;;
2023/04/07 00:04:01;;;;;;;1.0;1.0;;;;;;;9.1;100.0;101220;;;;
2023/04/07 00:05:01;;;;;;;1.0;1.0;;;;;;;9.1;100.0;101220;;;;
2023/04/07 00:06:00;;;;;;;1.0;1.0;;;;;;;9.1;100.0;101220;;;;
2023/04/07 00:07:00;;;;;;;1.0;1.0;;;;;;;9.1;100.0;101220;;;;
2023/04/07 00:08:00;;;;;;;1.0;1.0;;;;;;;9.1;100.0;101220;;;;
2023/04/07 00:09:00;;;;;;;1.0;1.0;;;;;;;9.1;100.0;101220;;;;
2023/04/07 00:10:00;;;;;;;1.0;1.0;;;;;;;9.1;100.0;101220;;;;
2023/04/07 00:11:00;;;;;;;1.0;1.0;;;;;;;9.1;100.0;101220;;;;
2023/04/07 00:12:01;;;;;;;1.0;1.0;;;;;;;9.0;100.0;101220;;;;
2023/04/07 00:13:00;;;;;;;1.0;1.0;;;;;;;9.0;100.0;101220;;;;
2023/04/07 00:14:00;;;;;;;1.0;1.0;;;;;;;9.0;100.0;101220;;;;
2023/04/07 00:15:00;;;;;;;1.0;1.0;;;;;;;9.0;100.0;101220;;;;
2023/04/07 00:16:00;;;;;;;1.0;1.0;;;;;;;9.1;100.0;101220;;;;
2023/04/07 00:17:00;;;;;;;1.0;1.0;;;;;;;9.1;100.0;101220;;;;
2023/04/07 00:18:00;;;;;;;1.0;1.0;;;;;;;9.1;100.0;101220;;;;
2023/04/07 00:19:00;;;;;;;1.0;1.0;;;;;;;9.1;100.0;101220;;;;
2023/04/07 00:20:00;;;;;;;1.0;1.0;;;;;;;9.0;100.0;101220;;;;
2023/04/07 00:21:00;;;;;;;1.0;1.0;;;;;;;9.0;100.0;101220;;;;
2023/04/07 00:22:00;;;;;;;1.0;1.0;;;;;;;9.0;100.0;101220;;;;
2023/04/07 00:23:00;;;;;;;1.0;1.0;;;;;;;9.0;100.0;101220;;;;
2023/04/07 00:24:00;;;;;;;1.0;1.0;;;;;;;9.0;100.0;101220;;;;
2023/04/07 00:25:00;;;;;;;1.0;1.0;;;;;;;9.0;100.0;101220;;;;
2023/04/07 00:26:00;;;;;;;1.0;1.0;;;;;;;8.9;100.0;101220;;;;
2023/04/07 00:27:00;;;;;;;1.0;1.0;;;;;;;8.9;100.0;101220;;;;
2023/04/07 00:28:00;;;;;;;1.0;1.0;;;;;;;8.9;100.0;101220;;;;
2023/04/07 00:29:00;;;;;;;1.0;1.0;;;;;;;8.9;100.0;101220;;;;
2023/04/07 00:30:00;;;;;;;1.0;1.0;;;;;;;8.9;100.0;101220;;;;
2023/04/07 00:31:00;;;;;;;1.0;1.0;;;;;;;8.9;100.0;101220;;;;
2023/04/07 00:32:00;;;;;;;1.0;1.0;;;;;;;8.9;100.0;101220;;;;
2023/04/07 00:33:00;;;;;;;1.0;1.0;;;;;;;8.9;100.0;101220;;;;
2023/04/07 00:34:00;;;;;;;1.0;1.0;;;;;;;9.0;100.0;101220;;;;
2023/04/07 00:35:02;;;;;;;1.0;1.0;;;;;;;9.0;100.0;101220;;;;
2023/04/07 00:36:00;;;;;;;1.1;1.1;;;;;;;8.9;100.0;101210;;;;
2023/04/07 00:37:00;;;;;;;1.1;1.1;;;;;;;8.9;100.0;101210;;;;
2023/04/07 00:38:00;;;;;;;1.1;1.1;;;;;;;8.9;100.0;101220;;;;
2023/04/07 00:39:00;;;;;;;1.1;1.1;;;;;;;8.9;100.0;101220;;;;
2023/04/07 00:40:00;;;;;;;1.1;1.1;;;;;;;8.9;100.0;101210;;;;
2023/04/07 00:41:00;;;;;;;1.1;1.1;;;;;;;8.9;100.0;101210;;;;
2023/04/07 00:42:02;;;;;;;1.1;1.1;;;;;;;8.9;100.0;101220;;;;
2023/04/07 00:43:00;;;;;;;1.1;1.1;;;;;;;8.9;100.0;101220;;;;
2023/04/07 00:44:00;;;;;;;1.1;1.1;;;;;;;8.9;100.0;101220;;;;
2023/04/07 00:45:00;;;;;;;1.1;1.1;;;;;;;8.9;100.0;101220;;;;
2023/04/07 00:46:00;;;;;;;1.1;1.1;;;;;;;8.8;100.0;101210;;;;
2023/04/07 00:47:00;;;;;;;1.1;1.1;;;;;;;8.8;100.0;101210;;;;
2023/04/07 00:48:00;;;;;;;1.1;1.1;;;;;;;8.9;100.0;101220;;;;
2023/04/07 00:49:00;;;;;;;1.1;1.1;;;;;;;8.9;100.0;101220;;;;
2023/04/07 00:50:02;;;;;;;1.1;1.1;;;;;;;8.9;100.0;101220;;;;
2023/04/07 00:51:00;;;;;;;1.1;1.1;;;;;;;8.9;100.0;101220;;;;
2023/04/07 00:52:00;;;;;;;1.1;1.1;;;;;;;8.8;100.0;101210;;;;
2023/04/07 00:53:01;;;;;;;1.1;1.1;;;;;;;8.8;100.0;101210;;;;
2023/04/07 00:54:00;;;;;;;1.1;1.1;;;;;;;8.8;100.0;101220;;;;
2023/04/07 00:55:00;;;;;;;1.1;1.1;;;;;;;8.8;100.0;101220;;;;
2023/04/07 00:56:00;;;;;;;1.1;1.1;;;;;;;8.8;100.0;101210;;;;
2023/04/07 00:57:00;;;;;;;1.1;1.1;;;;;;;8.8;100.0;101210;;;;
2023/04/07 00:58:00;;;;;;;1.1;1.1;;;;;;;8.8;100.0;101220;;;;
2023/04/07 00:59:02;;;;;;;1.1;1.1;;;;;;;8.8;100.0;101220;;;;
2023/04/07 01:00:00;;;;;;;1.1;1.1;;;;;;;8.9;100.0;101220;;;;
2023/04/07 01:01:00;;;;;;;1.1;1.1;;;;;;;8.9;100.0;101220;;;;
2023/04/07 01:02:00;;;;;;;1.1;1.1;;;;;;;8.9;100.0;101220;;;;
2023/04/07 01:03:05;;;;;;;1.1;1.1;;;;;;;8.9;100.0;101220;;;;
2023/04/07 01:04:04;;;;;;;1.1;1.1;;;;;;;8.9;100.0;101220;;;;
2023/04/07 01:05:00;;;;;;;1.1;1.1;;;;;;;8.9;100.0;101220;;;;
2023/04/07 01:06:01;;;;;;;1.1;1.1;;;;;;;8.8;100.0;101220;;;;
2023/04/07 01:07:04;;;;;;;1.1;1.1;;;;;;;8.8;100.0;101220;;;;
2023/04/07 01:08:10;;;;;;;1.1;1.1;;;;;;;8.9;100.0;101210;;;;
2023/04/07 01:09:04;;;;;;;1.1;1.1;;;;;;;8.9;100.0;101210;;;;
2023/04/07 01:10:02;;;;;;;1.1;1.1;;;;;;;8.9;100.0;101220;;;;
2023/04/07 01:11:10;;;;;;;1.1;1.1;;;;;;;8.9;100.0;101220;;;;
2023/04/07 01:12:10;;;;;;;1.1;1.1;;;;;;;8.9;100.0;101220;;;;
2023/04/07 01:13:03;;;;;;;1.1;1.1;;;;;;;8.9;100.0;101220;;;;
2023/04/07 01:14:00;;;;;;;1.1;1.1;;;;;;;9.0;100.0;101220;;;;
2023/04/07 01:15:06;;;;;;;1.1;1.1;;;;;;;9.0;100.0;101220;;;;
2023/04/07 01:16:03;;;;;;;1.0;1.0;;;;;;;8.8;100.0;101220;;;;
2023/04/07 01:17:01;;;;;;;1.0;1.0;;;;;;;8.8;100.0;101220;;;;
2023/04/07 01:18:10;;;;;;;1.0;1.0;;;;;;;8.8;100.0;101220;;;;
2023/04/07 01:19:07;;;;;;;1.0;1.0;;;;;;;8.8;100.0;101220;;;;
2023/04/07 01:20:04;;;;;;;1.0;1.0;;;;;;;8.7;100.0;101230;;;;
2023/04/07 01:21:03;;;;;;;1.0;1.0;;;;;;;8.7;100.0;101230;;;;
2023/04/07 01:22:03;;;;;;;1.0;1.0;;;;;;;8.8;100.0;101230;;;;
2023/04/07 01:23:02;;;;;;;1.0;1.0;;;;;;;8.8;100.0;101230;;;;
2023/04/07 01:24:05;;;;;;;1.0;1.0;;;;;;;8.8;100.0;101220;;;;
2023/04/07 01:25:10;;;;;;;1.0;1.0;;;;;;;8.8;100.0;101220;;;;
2023/04/07 01:26:03;;;;;;;1.0;1.0;;;;;;;8.7;100.0;101220;;;;
2023/04/07 01:27:10;;;;;;;1.0;1.0;;;;;;;8.7;100.0;101220;;;;
2023/04/07 01:28:02;;;;;;;1.0;1.0;;;;;;;8.8;100.0;101220;;;;
2023/04/07 01:29:10;;;;;;;1.0;1.0;;;;;;;8.8;100.0;101220;;;;
2023/04/07 01:30:01;;;;;;;1.0;1.0;;;;;;;8.8;100.0;101220;;;;
2023/04/07 01:31:01;;;;;;;1.0;1.0;;;;;;;8.8;100.0;101220;;;;
2023/04/07 01:32:02;;;;;;;1.0;1.0;;;;;;;8.8;100.0;101220;;;;
2023/04/07 01:33:01;;;;;;;1.0;1.0;;;;;;;8.8;100.0;101220;;;;
2023/04/07 01:34:01;;;;;;;1.0;1.0;;;;;;;8.7;100.0;101220;;;;
2023/04/07 01:35:02;;;;;;;1.0;1.0;;;;;;;8.7;100.0;101220;;;;
2023/04/07 01:36:01;;;;;;;2.5;1.7;;;;;;;8.8;100.0;101220;;;;
2023/04/07 01:37:01;;;;;;;2.5;1.7;;;;;;;8.8;100.0;101220;;;;
2023/04/07 01:38:01;;;;;;;2.5;1.7;;;;;;;8.8;100.0;101230;;;;
2023/04/07 01:39:00;;;;;;;2.5;1.7;;;;;;;8.8;100.0;101230;;;;
2023/04/07 01:40:01;;;;;;;2.5;1.7;;;;;;;8.7;100.0;101230;;;;
2023/04/07 01:41:00;;;;;;;2.5;1.7;;;;;;;8.7;100.0;101230;;;;
2023/04/07 01:42:01;;;;;;;2.5;1.7;;;;;;;8.7;100.0;101230;;;;
2023/04/07 01:43:00;;;;;;;2.5;1.7;;;;;;;8.7;100.0;101230;;;;
2023/04/07 01:44:01;;;;;;;2.5;1.7;;;;;;;8.6;100.0;101230;;;;
2023/04/07 01:45:01;;;;;;;2.5;1.7;;;;;;;8.6;100.0;101230;;;;
2023/04/07 01:46:01;;;;;;;2.5;1.7;;;;;;;8.7;100.0;101230;;;;
2023/04/07 01:47:01;;;;;;;2.5;1.7;;;;;;;8.7;100.0;101230;;;;
2023/04/07 01:48:00;;;;;;;2.5;1.7;;;;;;;8.6;100.0;101240;;;;
2023/04/07 01:49:00;;;;;;;2.5;1.7;;;;;;;8.6;100.0;101240;;;;
2023/04/07 01:50:03;;;;;;;2.5;1.7;;;;;;;8.7;100.0;101230;;;;
2023/04/07 01:51:00;;;;;;;2.5;1.7;;;;;;;8.7;100.0;101230;;;;
2023/04/07 01:52:00;;;;;;;2.5;1.7;;;;;;;8.7;100.0;101240;;;;
2023/04/07 01:53:02;;;;;;;2.5;1.7;;;;;;;8.7;100.0;101240;;;;
2023/04/07 01:54:00;;;;;;;2.5;1.7;;;;;;;8.6;100.0;101240;;;;
2023/04/07 01:55:00;;;;;;;2.5;1.7;;;;;;;8.6;100.0;101240;;;;
2023/04/07 01:56:00;;;;;;;1.1;1.1;;;;;;;8.6;100.0;101240;;;;
2023/04/07 01:57:00;;;;;;;1.1;1.1;;;;;;;8.6;100.0;101240;;;;
2023/04/07 01:58:05;;;;;;;1.1;1.1;;;;;;;8.6;100.0;101240;;;;
2023/04/07 01:59:00;;;;;;;1.1;1.1;;;;;;;8.6;100.0;101240;;;;
2023/04/07 02:00:00;;;;;;;1.1;1.1;;;;;;;8.6;100.0;101240;;;;
2023/04/07 02:01:00;;;;;;;1.1;1.1;;;;;;;8.6;100.0;101240;;;;
2023/04/07 02:02:00;;;;;;;1.1;1.1;;;;;;;8.6;100.0;101240;;;;
2023/04/07 02:03:10;;;;;;;1.1;1.1;;;;;;;8.6;100.0;101240;;;;
2023/04/07 02:04:10;;;;;;;1.1;1.1;;;;;;;8.6;100.0;101240;;;;
2023/04/07 02:05:04;;;;;;;1.1;1.1;;;;;;;8.6;100.0;101240;;;;
2023/04/07 02:06:03;;;;;;;1.1;1.1;;;;;;;8.6;100.0;101240;;;;
2023/04/07 02:07:02;;;;;;;1.1;1.1;;;;;;;8.6;100.0;101240;;;;
2023/04/07 02:08:02;;;;;;;1.1;1.1;;;;;;;8.6;100.0;101240;;;;
2023/04/07 02:09:03;;;;;;;1.1;1.1;;;;;;;8.6;100.0;101240;;;;
2023/04/07 02:10:01;;;;;;;1.1;1.1;;;;;;;8.6;100.0;101240;;;;
2023/04/07 02:11:02;;;;;;;1.1;1.1;;;;;;;8.6;100.0;101240;;;;
2023/04/07 02:12:01;;;;;;;1.1;1.1;;;;;;;8.5;100.0;101240;;;;
2023/04/07 02:13:02;;;;;;;1.1;1.1;;;;;;;8.5;100.0;101240;;;;
2023/04/07 02:14:01;;;;;;;1.1;1.1;;;;;;;8.6;100.0;101250;;;;
2023/04/07 02:15:01;;;;;;;1.1;1.1;;;;;;;8.6;100.0;101250;;;;
2023/04/07 02:16:01;;;;;;;1.0;1.0;;;;;;;8.5;100.0;101240;;;;
2023/04/07 02:17:01;;;;;;;1.0;1.0;;;;;;;8.5;100.0;101240;;;;
2023/04/07 02:18:01;;;;;;;1.0;1.0;;;;;;;8.5;100.0;101240;;;;
2023/04/07 02:19:02;;;;;;;1.0;1.0;;;;;;;8.5;100.0;101240;;;;
2023/04/07 02:20:01;;;;;;;1.0;1.0;;;;;;;8.5;100.0;101250;;;;
2023/04/07 02:21:01;;;;;;;1.0;1.0;;;;;;;8.5;100.0;101250;;;;
2023/04/07 02:22:04;;;;;;;1.0;1.0;;;;;;;8.5;100.0;101240;;;;
2023/04/07 02:23:00;;;;;;;1.0;1.0;;;;;;;8.5;100.0;101240;;;;
2023/04/07 02:24:01;;;;;;;1.0;1.0;;;;;;;8.5;100.0;101250;;;;
2023/04/07 02:25:00;;;;;;;1.0;1.0;;;;;;;8.5;100.0;101250;;;;
2023/04/07 02:26:00;;;;;;;1.0;1.0;;;;;;;8.5;100.0;101250;;;;
2023/04/07 02:27:00;;;;;;;1.0;1.0;;;;;;;8.5;100.0;101250;;;;
2023/04/07 02:28:00;;;;;;;1.0;1.0;;;;;;;8.5;100.0;101250;;;;
2023/04/07 02:29:00;;;;;;;1.0;1.0;;;;;;;8.5;100.0;101250;;;;
2023/04/07 02:30:00;;;;;;;1.0;1.0;;;;;;;8.5;100.0;101250;;;;
2023/04/07 02:31:00;;;;;;;1.0;1.0;;;;;;;8.5;100.0;101250;;;;
2023/04/07 02:32:00;;;;;;;1.0;1.0;;;;;;;8.5;100.0;101250;;;;
2023/04/07 02:33:00;;;;;;;1.0;1.0;;;;;;;8.5;100.0;101250;;;;
2023/04/07 02:34:00;;;;;;;1.0;1.0;;;;;;;8.5;100.0;101250;;;;
2023/04/07 02:35:00;;;;;;;1.0;1.0;;;;;;;8.5;100.0;101250;;;;
2023/04/07 02:36:00;;;;;;;1.1;1.1;;;;;;;8.5;100.0;101250;;;;
2023/04/07 02:37:00;;;;;;;1.1;1.1;;;;;;;8.5;100.0;101250;;;;
2023/04/07 02:38:00;;;;;;;1.1;1.1;;;;;;;8.5;100.0;101250;;;;
2023/04/07 02:39:00;;;;;;;1.1;1.1;;;;;;;8.5;100.0;101250;;;;
2023/04/07 02:40:00;;;;;;;1.1;1.1;;;;;;;8.5;100.0;101250;;;;
2023/04/07 02:41:00;;;;;;;1.1;1.1;;;;;;;8.5;100.0;101250;;;;
2023/04/07 02:42:00;;;;;;;1.1;1.1;;;;;;;8.5;100.0;101250;;;;
2023/04/07 02:43:00;;;;;;;1.1;1.1;;;;;;;8.5;100.0;101250;;;;
2023/04/07 02:44:00;;;;;;;1.1;1.1;;;;;;;8.5;100.0;101250;;;;
2023/04/07 02:45:00;;;;;;;1.1;1.1;;;;;;;8.5;100.0;101250;;;;
2023/04/07 02:46:00;;;;;;;1.1;1.1;;;;;;;8.5;100.0;101250;;;;
2023/04/07 02:47:00;;;;;;;1.1;1.1;;;;;;;8.5;100.0;101250;;;;
2023/04/07 02:48:00;;;;;;;1.1;1.1;;;;;;;8.5;100.0;101250;;;;
2023/04/07 02:49:00;;;;;;;1.1;1.1;;;;;;;8.5;100.0;101250;;;;
2023/04/07 02:50:00;;;;;;;1.1;1.1;;;;;;;8.5;100.0;101250;;;;
2023/04/07 02:51:00;;;;;;;1.1;1.1;;;;;;;8.5;100.0;101250;;;;
2023/04/07 02:52:00;;;;;;;1.1;1.1;;;;;;;8.5;100.0;101250;;;;
2023/04/07 02:53:00;;;;;;;1.1;1.1;;;;;;;8.5;100.0;101250;;;;
2023/04/07 02:54:00;;;;;;;1.1;1.1;;;;;;;8.5;100.0;101250;;;;
2023/04/07 02:55:00;;;;;;;1.1;1.1;;;;;;;8.5;100.0;101250;;;;
2023/04/07 02:56:00;;;;;;;1.4;1.4;;;;;;;8.4;100.0;101250;;;;
2023/04/07 02:57:00;;;;;;;1.4;1.4;;;;;;;8.4;100.0;101250;;;;
2023/04/07 02:58:00;;;;;;;1.4;1.4;;;;;;;8.4;100.0;101250;;;;
2023/04/07 02:59:00;;;;;;;1.4;1.4;;;;;;;8.4;100.0;101250;;;;
2023/04/07 03:00:00;;;;;;;1.4;1.4;;;;;;;8.5;100.0;101250;;;;
2023/04/07 03:01:00;;;;;;;1.4;1.4;;;;;;;8.5;100.0;101250;;;;
2023/04/07 03:02:00;;;;;;;1.4;1.4;;;;;;;8.5;100.0;101250;;;;
2023/04/07 03:03:00;;;;;;;1.4;1.4;;;;;;;8.5;100.0;101250;;;;
2023/04/07 03:04:00;;;;;;;1.4;1.4;;;;;;;8.4;100.0;101250;;;;
2023/04/07 03:05:01;;;;;;;1.4;1.4;;;;;;;8.4;100.0;101250;;;;
2023/04/07 03:06:00;;;;;;;1.4;1.4;;;;;;;8.4;100.0;101250;;;;
2023/04/07 03:07:00;;;;;;;1.4;1.4;;;;;;;8.4;100.0;101250;;;;
2023/04/07 03:08:00;;;;;;;1.4;1.4;;;;;;;8.5;100.0;101250;;;;
2023/04/07 03:09:00;;;;;;;1.4;1.4;;;;;;;8.5;100.0;101250;;;;
2023/04/07 03:10:00;;;;;;;1.4;1.4;;;;;;;8.4;100.0;101240;;;;
2023/04/07 03:11:00;;;;;;;1.4;1.4;;;;;;;8.4;100.0;101240;;;;
2023/04/07 03:12:01;;;;;;;1.4;1.4;;;;;;;8.4;100.0;101240;;;;
2023/04/07 03:13:00;;;;;;;1.4;1.4;;;;;;;8.4;100.0;101240;;;;
2023/04/07 03:14:00;;;;;;;1.4;1.4;;;;;;;8.4;100.0;101250;;;;
2023/04/07 03:15:00;;;;;;;1.4;1.4;;;;;;;8.4;100.0;101250;;;;
2023/04/07 03:16:00;;;;;;;1.0;1.0;;;;;;;8.5;100.0;101250;;;;
2023/04/07 03:17:00;;;;;;;1.0;1.0;;;;;;;8.5;100.0;101250;;;;
2023/04/07 03:18:00;;;;;;;1.0;1.0;;;;;;;8.5;100.0;101250;;;;
2023/04/07 03:19:00;;;;;;;1.0;1.0;;;;;;;8.5;100.0;101250;;;;
2023/04/07 03:20:00;;;;;;;1.0;1.0;;;;;;;8.5;100.0;101240;;;;
2023/04/07 03:21:00;;;;;;;1.0;1.0;;;;;;;8.5;100.0;101240;;;;
2023/04/07 03:22:00;;;;;;;1.0;1.0;;;;;;;8.5;100.0;101250;;;;
2023/04/07 03:23:00;;;;;;;1.0;1.0;;;;;;;8.5;100.0;101250;;;;
2023/04/07 03:24:00;;;;;;;1.0;1.0;;;;;;;8.5;100.0;101250;;;;
2023/04/07 03:25:00;;;;;;;1.0;1.0;;;;;;;8.5;100.0;101250;;;;
2023/04/07 03:26:00;;;;;;;1.0;1.0;;;;;;;8.5;100.0;101250;;;;
2023/04/07 03:27:01;;;;;;;1.0;1.0;;;;;;;8.5;100.0;101250;;;;
2023/04/07 03:28:00;;;;;;;1.0;1.0;;;;;;;8.5;100.0;101250;;;;
2023/04/07 03:29:00;;;;;;;1.0;1.0;;;;;;;8.5;100.0;101250;;;;
2023/04/07 03:30:00;;;;;;;1.0;1.0;;;;;;;8.5;100.0;101250;;;;
2023/04/07 03:31:00;;;;;;;1.0;1.0;;;;;;;8.5;100.0;101250;;;;
2023/04/07 03:32:00;;;;;;;1.0;1.0;;;;;;;8.5;100.0;101250;;;;
2023/04/07 03:33:00;;;;;;;1.0;1.0;;;;;;;8.5;100.0;101250;;;;
2023/04/07 03:34:00;;;;;;;1.0;1.0;;;;;;;8.5;100.0;101260;;;;
2023/04/07 03:35:00;;;;;;;1.3;1.3;;;;;;;8.5;100.0;101260;;;;
2023/04/07 03:36:00;;;;;;;1.3;1.3;;;;;;;8.5;100.0;101260;;;;
2023/04/07 03:37:00;;;;;;;1.3;1.3;;;;;;;8.5;100.0;101260;;;;
2023/04/07 03:38:00;;;;;;;1.3;1.3;;;;;;;8.5;100.0;101260;;;;
2023/04/07 03:39:00;;;;;;;1.3;1.3;;;;;;;8.5;100.0;101260;;;;
2023/04/07 03:40:00;;;;;;;1.3;1.3;;;;;;;8.5;100.0;101260;;;;
2023/04/07 03:41:00;;;;;;;1.3;1.3;;;;;;;8.5;100.0;101260;;;;
2023/04/07 03:42:00;;;;;;;1.3;1.3;;;;;;;8.5;100.0;101250;;;;
2023/04/07 03:43:00;;;;;;;1.3;1.3;;;;;;;8.5;100.0;101250;;;;
2023/04/07 03:44:00;;;;;;;1.3;1.3;;;;;;;8.5;100.0;101260;;;;
2023/04/07 03:45:00;;;;;;;1.3;1.3;;;;;;;8.5;100.0;101260;;;;
2023/04/07 03:46:00;;;;;;;1.3;1.3;;;;;;;8.5;100.0;101250;;;;
2023/04/07 03:47:00;;;;;;;1.3;1.3;;;;;;;8.5;100.0;101250;;;;
2023/04/07 03:48:01;;;;;;;1.3;1.3;;;;;;;8.5;100.0;101260;;;;
2023/04/07 03:49:01;;;;;;;1.3;1.3;;;;;;;8.5;100.0;101260;;;;
2023/04/07 03:50:00;;;;;;;1.3;1.3;;;;;;;8.5;100.0;101260;;;;
2023/04/07 03:51:00;;;;;;;1.3;1.3;;;;;;;8.5;100.0;101260;;;;
2023/04/07 03:52:00;;;;;;;1.3;1.3;;;;;;;8.5;100.0;101260;;;;
2023/04/07 03:53:00;;;;;;;1.3;1.3;;;;;;;8.5;100.0;101260;;;;
2023/04/07 03:54:00;;;;;;;1.3;1.3;;;;;;;8.4;100.0;101260;;;;
2023/04/07 03:55:00;;;;;;;1.0;1.0;;;;;;;8.4;100.0;101260;;;;
2023/04/07 03:56:00;;;;;;;1.0;1.0;;;;;;;8.5;100.0;101260;;;;
2023/04/07 03:57:01;;;;;;;1.0;1.0;;;;;;;8.5;100.0;101260;;;;
2023/04/07 03:58:00;;;;;;;1.0;1.0;;;;;;;8.6;100.0;101260;;;;
2023/04/07 03:59:00;;;;;;;1.0;1.0;;;;;;;8.6;100.0;101260;;;;
2023/04/07 04:00:00;;;;;;;1.0;1.0;;;;;;;8.4;100.0;101260;;;;
2023/04/07 04:01:00;;;;;;;1.0;1.0;;;;;;;8.4;100.0;101260;;;;
2023/04/07 04:02:00;;;;;;;1.0;1.0;;;;;;;8.4;100.0;101260;;;;
2023/04/07 04:03:00;;;;;;;1.0;1.0;;;;;;;8.4;100.0;101260;;;;
2023/04/07 04:04:00;;;;;;;1.0;1.0;;;;;;;8.4;100.0;101260;;;;
2023/04/07 04:05:00;;;;;;;1.0;1.0;;;;;;;8.4;100.0;101260;;;;
2023/04/07 04:06:00;;;;;;;1.0;1.0;;;;;;;8.4;100.0;101260;;;;
2023/04/07 04:07:00;;;;;;;1.0;1.0;;;;;;;8.4;100.0;101260;;;;
2023/04/07 04:08:00;;;;;;;1.0;1.0;;;;;;;8.4;100.0;101260;;;;
2023/04/07 04:09:00;;;;;;;1.0;1.0;;;;;;;8.4;100.0;101260;;;;
2023/04/07 04:10:00;;;;;;;1.0;1.0;;;;;;;8.4;100.0;101260;;;;
2023/04/07 04:11:00;;;;;;;1.0;1.0;;;;;;;8.4;100.0;101260;;;;
2023/04/07 04:12:00;;;;;;;1.0;1.0;;;;;;;8.4;100.0;101260;;;;
2023/04/07 04:13:02;;;;;;;1.0;1.0;;;;;;;8.4;100.0;101260;;;;
2023/04/07 04:14:00;;;;;;;1.0;1.0;;;;;;;8.5;100.0;101260;;;;
2023/04/07 04:15:00;;;;;;;1.2;1.2;;;;;;;8.5;100.0;101260;;;;
2023/04/07 04:16:01;;;;;;;1.2;1.2;;;;;;;8.5;100.0;101260;;;;
2023/04/07 04:17:00;;;;;;;1.2;1.2;;;;;;;8.5;100.0;101260;;;;
2023/04/07 04:18:00;;;;;;;1.2;1.2;;;;;;;8.4;100.0;101260;;;;
2023/04/07 04:19:00;;;;;;;1.2;1.2;;;;;;;8.4;100.0;101260;;;;
2023/04/07 04:20:00;;;;;;;1.2;1.2;;;;;;;8.5;100.0;101260;;;;
2023/04/07 04:21:00;;;;;;;1.2;1.2;;;;;;;8.5;100.0;101260;;;;
2023/04/07 04:22:00;;;;;;;1.2;1.2;;;;;;;8.4;100.0;101260;;;;
2023/04/07 04:23:00;;;;;;;1.2;1.2;;;;;;;8.4;100.0;101260;;;;
2023/04/07 04:24:00;;;;;;;1.2;1.2;;;;;;;8.4;100.0;101260;;;;
2023/04/07 04:25:00;;;;;;;1.2;1.2;;;;;;;8.4;100.0;101260;;;;
2023/04/07 04:26:02;;;;;;;1.2;1.2;;;;;;;8.4;100.0;101260;;;;
2023/04/07 04:27:00;;;;;;;1.2;1.2;;;;;;;8.4;100.0;101260;;;;
2023/04/07 04:28:00;;;;;;;1.2;1.2;;;;;;;8.4;100.0;101260;;;;
2023/04/07 04:29:01;;;;;;;1.2;1.2;;;;;;;8.4;100.0;101260;;;;
2023/04/07 04:30:00;;;;;;;1.2;1.2;;;;;;;8.4;100.0;101260;;;;
2023/04/07 04:31:00;;;;;;;1.2;1.2;;;;;;;8.4;100.0;101260;;;;
2023/04/07 04:32:00;;;;;;;1.2;1.2;;;;;;;8.4;100.0;101270;;;;
2023/04/07 04:33:00;;;;;;;1.2;1.2;;;;;;;8.4;100.0;101270;;;;
2023/04/07 04:34:00;;;;;;;1.2;1.2;;;;;;;8.5;100.0;101270;;;;
2023/04/07 04:35:00;;;;;;;1.2;1.2;;;;;;;8.5;100.0;101270;;;;
2023/04/07 04:36:00;;;;;;;1.2;1.2;;;;;;;8.4;100.0;101270;;;;
2023/04/07 04:37:00;;;;;;;1.2;1.2;;;;;;;8.4;100.0;101270;;;;
2023/04/07 04:38:00;;;;;;;1.2;1.2;;;;;;;8.4;100.0;101270;;;;
2023/04/07 04:39:00;;;;;;;1.2;1.2;;;;;;;8.4;100.0;101270;;;;
